Time;durP1;ratioP1;P1;durP2;ratioP2;P2;SDS_P1;SDS_P2;PMS_P1;PMS_P2;Temp;Humidity;BMP_temperature;BMP_pressure;BME280_temperature;BME280_humidity;BME280_pressure;Samples;Min_cycle;Max_cycle;Signal;HPM_P1;HPM_P2
2023/05/16 00:02:07;;;;;;;0.43;0.30;;;;;;;20.44;51.12;101287.16;5133692;27;20417;-44
2023/05/16 00:04:34;;;;;;;0.20;0.20;;;;;;;20.43;51.19;101282.72;5132835;27;20054;-44
2023/05/16 00:07:00;;;;;;;0.20;0.20;;;;;;;20.42;51.10;101275.53;5132885;27;20513;-44
2023/05/16 00:09:25;;;;;;;0.32;0.32;;;;;;;20.43;51.50;101283.56;5132877;27;20253;-44
2023/05/16 00:11:51;;;;;;;0.20;0.20;;;;;;;20.42;51.11;101281.91;5133501;27;20568;-43
2023/05/16 00:14:18;;;;;;;0.20;0.20;;;;;;;20.43;51.22;101288.28;5133035;27;20047;-45
2023/05/16 00:16:44;;;;;;;0.20;0.20;;;;;;;20.43;51.39;101294.63;5133394;27;20050;-45
2023/05/16 00:19:10;;;;;;;0.30;0.30;;;;;;;20.44;51.08;101292.69;5132909;27;20523;-43
2023/05/16 00:21:36;;;;;;;0.20;0.20;;;;;;;20.44;51.35;101289.91;5133404;27;20189;-43
2023/05/16 00:24:02;;;;;;;0.20;0.20;;;;;;;20.44;51.24;101295.44;5139761;27;20123;-44
2023/05/16 00:26:28;;;;;;;0.20;0.20;;;;;;;20.43;51.02;101299.34;5154124;27;20043;-44
2023/05/16 00:28:54;;;;;;;0.20;0.20;;;;;;;20.43;51.14;101299.34;5117653;27;20057;-43
2023/05/16 00:31:19;;;;;;;0.20;0.20;;;;;;;20.42;50.78;101292.97;5133408;27;20117;-45
2023/05/16 00:33:45;;;;;;;0.30;0.20;;;;;;;20.43;51.03;101302.09;5133722;27;20128;-43
2023/05/16 00:36:11;;;;;;;0.20;0.20;;;;;;;20.43;51.43;101304.88;5132599;27;20050;-44
2023/05/16 00:38:37;;;;;;;0.20;0.20;;;;;;;20.42;51.13;101304.03;5133259;27;20051;-46
2023/05/16 00:41:03;;;;;;;0.20;0.20;;;;;;;20.43;50.99;101307.63;5133086;27;20399;-44
2023/05/16 00:43:29;;;;;;;0.22;0.22;;;;;;;20.43;51.12;101307.63;5136552;27;20050;-44
2023/05/16 00:45:56;;;;;;;0.35;0.35;;;;;;;20.43;51.07;101304.88;5136724;27;20038;-43
2023/05/16 00:48:22;;;;;;;0.20;0.20;;;;;;;20.44;51.01;101312.06;5136268;27;20471;-43
2023/05/16 00:50:48;;;;;;;0.20;0.20;;;;;;;20.42;51.24;101309.56;5136011;27;20101;-44
2023/05/16 00:53:14;;;;;;;0.20;0.20;;;;;;;20.43;50.92;101314.00;5136721;27;20058;-45
2023/05/16 00:55:39;;;;;;;0.65;0.30;;;;;;;20.41;51.18;101316.19;5136169;27;20062;-43
2023/05/16 00:58:05;;;;;;;0.20;0.20;;;;;;;20.41;51.13;101307.91;5136337;27;20547;-43
2023/05/16 01:00:31;;;;;;;0.30;0.30;;;;;;;20.42;50.97;101314.25;5126114;27;20043;-43
2023/05/16 01:02:57;;;;;;;0.20;0.20;;;;;;;20.39;51.34;101307.34;5116397;28;20558;-44
2023/05/16 01:05:23;;;;;;;0.20;0.20;;;;;;;20.42;51.06;101314.25;5115692;28;20470;-45
2023/05/16 01:07:48;;;;;;;0.20;0.20;;;;;;;20.41;51.05;101320.91;5122338;27;20047;-44
2023/05/16 01:10:14;;;;;;;0.30;0.30;;;;;;;20.40;51.20;101328.38;5128303;27;20053;-44
2023/05/16 01:13:13;;;;;;;0.20;0.20;;;;;;;20.42;51.22;101330.84;5116260;28;20100;-44
2023/05/16 01:15:45;;;;;;;0.20;0.20;;;;;;;20.41;51.27;101327.25;5099862;28;20063;-43
2023/05/16 01:18:24;;;;;;;0.25;0.25;;;;;;;20.41;51.37;101326.44;5124403;27;20043;-44
2023/05/16 01:20:55;;;;;;;0.20;0.20;;;;;;;20.41;51.09;101324.50;5130424;27;20755;-44
2023/05/16 01:23:52;;;;;;;0.22;0.22;;;;;;;20.39;51.07;101326.72;5116958;27;20398;-43
2023/05/16 01:26:22;;;;;;;0.22;0.22;;;;;;;20.41;50.89;101341.09;5140746;27;20050;-44
2023/05/16 01:28:50;;;;;;;0.20;0.20;;;;;;;20.41;51.12;101329.19;5122190;27;20440;-45
2023/05/16 01:31:16;;;;;;;0.20;0.20;;;;;;;20.40;50.96;101336.66;5112957;28;20039;-45
2023/05/16 01:33:42;;;;;;;0.20;0.20;;;;;;;20.41;50.92;101334.72;5115572;27;20070;-45
2023/05/16 01:36:33;;;;;;;0.20;0.20;;;;;;;20.40;51.11;101339.44;5112682;28;20063;-44
2023/05/16 01:39:24;;;;;;;0.20;0.20;;;;;;;20.40;51.02;101352.44;5120961;27;20398;-44
2023/05/16 01:42:12;;;;;;;0.20;0.20;;;;;;;20.40;51.03;101352.44;5114106;28;20047;-44
2023/05/16 01:45:02;;;;;;;0.20;0.20;;;;;;;20.41;51.03;101351.31;5119522;27;20418;-43
2023/05/16 01:47:28;;;;;;;0.22;0.22;;;;;;;20.39;50.97;101362.69;5120063;27;20077;-44
2023/05/16 01:50:21;;;;;;;0.20;0.20;;;;;;;20.39;51.03;101359.91;5113020;28;20047;-45
2023/05/16 01:55:47;;;;;;;0.20;0.20;;;;;;;20.39;51.19;101370.97;5172306;27;20418;-43
2023/05/16 01:58:14;;;;;;;0.20;0.20;;;;;;;20.39;50.97;101367.38;5135528;27;20057;-42
2023/05/16 02:00:40;;;;;;;0.20;0.20;;;;;;;20.39;51.14;101372.91;5139046;27;20043;-45
2023/05/16 02:03:07;;;;;;;0.20;0.20;;;;;;;20.39;51.21;101376.50;5130951;27;20069;-40
2023/05/16 02:05:32;;;;;;;0.20;0.20;;;;;;;20.39;50.90;101375.69;5130518;27;20487;-42
2023/05/16 02:07:59;;;;;;;0.20;0.20;;;;;;;20.39;50.98;101384.00;5117764;27;20050;-43
2023/05/16 02:10:25;;;;;;;0.30;0.30;;;;;;;20.39;51.08;101379.28;5115563;27;20039;-40
2023/05/16 02:12:51;;;;;;;0.20;0.20;;;;;;;20.39;51.19;101384.81;5151487;27;20300;-41
2023/05/16 02:15:17;;;;;;;0.30;0.30;;;;;;;20.38;51.03;101380.41;5151227;27;20050;-42
2023/05/16 02:17:42;;;;;;;0.20;0.20;;;;;;;20.38;50.95;101387.84;5151066;27;20039;-42
2023/05/16 02:20:09;;;;;;;0.20;0.20;;;;;;;20.38;51.21;101383.16;5150243;27;20042;-42
2023/05/16 02:22:35;;;;;;;0.20;0.20;;;;;;;20.39;51.11;101387.56;5151911;27;20430;-45
2023/05/16 02:25:02;;;;;;;0.20;0.20;;;;;;;20.38;51.12;101391.47;5151457;27;20050;-41
2023/05/16 02:27:28;;;;;;;0.30;0.30;;;;;;;20.38;51.14;101393.38;5151326;27;20070;-41
2023/05/16 02:29:54;;;;;;;0.20;0.20;;;;;;;20.38;50.94;101398.91;5132235;27;20038;-42
2023/05/16 02:32:20;;;;;;;0.30;0.30;;;;;;;20.37;51.13;101400.00;5140418;27;20047;-42
2023/05/16 02:34:45;;;;;;;0.20;0.20;;;;;;;20.38;50.86;101402.53;5130108;27;20051;-41
2023/05/16 02:37:11;;;;;;;0.20;0.20;;;;;;;20.38;51.04;101408.06;5130504;27;20054;-42
2023/05/16 02:39:38;;;;;;;0.20;0.20;;;;;;;20.37;50.96;101400.84;5111032;27;20494;-41
2023/05/16 02:42:05;;;;;;;0.20;0.20;;;;;;;20.38;50.79;101409.97;5130415;27;20047;-42
2023/05/16 02:44:31;;;;;;;0.20;0.20;;;;;;;20.37;51.24;101409.13;5096579;27;20071;-41
2023/05/16 02:46:57;;;;;;;0.20;0.20;;;;;;;20.37;51.15;101413.84;5127876;27;20124;-43
2023/05/16 02:49:22;;;;;;;0.20;0.20;;;;;;;20.36;51.14;101415.78;5129405;27;20039;-43
2023/05/16 02:51:48;;;;;;;0.20;0.20;;;;;;;20.36;51.15;101421.31;5129238;27;20139;-42
2023/05/16 02:54:14;;;;;;;0.20;0.20;;;;;;;20.36;50.98;101426.84;5128896;27;20042;-42
2023/05/16 02:56:40;;;;;;;0.40;0.40;;;;;;;20.35;50.93;101422.44;5129954;27;20500;-42
2023/05/16 02:59:05;;;;;;;0.20;0.20;;;;;;;20.36;51.28;101431.56;5129636;27;20086;-41
2023/05/16 03:01:31;;;;;;;0.20;0.20;;;;;;;20.36;51.07;101439.84;5129324;27;20046;-41
2023/05/16 03:03:57;;;;;;;0.30;0.30;;;;;;;20.35;50.97;101446.50;5129319;27;20055;-41
2023/05/16 03:06:22;;;;;;;0.20;0.20;;;;;;;20.35;51.22;101441.78;5117301;27;20061;-42
2023/05/16 03:08:48;;;;;;;0.20;0.20;;;;;;;20.36;50.97;101442.63;5115603;28;20047;-42
2023/05/16 03:11:17;;;;;;;0.22;0.22;;;;;;;20.36;51.09;101448.16;5115295;28;20535;-40
2023/05/16 03:13:43;;;;;;;0.20;0.20;;;;;;;20.35;51.19;101444.56;5115347;28;20106;-41
2023/05/16 03:16:09;;;;;;;0.20;0.20;;;;;;;20.36;51.08;101442.63;5115683;28;20410;-43
2023/05/16 03:18:35;;;;;;;0.20;0.20;;;;;;;20.35;50.96;101444.56;5116706;27;20408;-41
2023/05/16 03:21:01;;;;;;;0.20;0.20;;;;;;;20.34;50.86;101448.44;5106424;27;20040;-41
2023/05/16 03:23:27;;;;;;;0.20;0.20;;;;;;;20.35;50.99;101444.56;5094804;28;20079;-42
2023/05/16 03:25:53;;;;;;;0.20;0.20;;;;;;;20.35;51.07;101440.97;5076403;28;20426;-42
2023/05/16 03:28:18;;;;;;;0.20;0.20;;;;;;;20.35;51.00;101446.50;5102160;28;20416;-43
2023/05/16 03:30:44;;;;;;;0.20;0.20;;;;;;;20.36;51.00;101453.69;5102981;28;20054;-43
2023/05/16 03:33:10;;;;;;;0.20;0.20;;;;;;;20.36;50.76;101456.44;5076449;28;20047;-41
2023/05/16 03:35:36;;;;;;;0.28;0.28;;;;;;;20.36;50.90;101459.22;5076574;28;20111;-43
2023/05/16 03:38:02;;;;;;;0.20;0.20;;;;;;;20.35;50.95;101460.34;5098614;28;20082;-41
2023/05/16 03:40:27;;;;;;;0.30;0.30;;;;;;;20.35;51.03;101455.63;5105322;28;20050;-41
2023/05/16 03:42:53;;;;;;;0.20;0.20;;;;;;;20.35;50.85;101461.16;5095075;28;20548;-42
2023/05/16 03:45:19;;;;;;;0.20;0.20;;;;;;;20.35;51.03;101466.69;5094803;28;20230;-45
2023/05/16 03:47:45;;;;;;;0.20;0.20;;;;;;;20.35;50.81;101469.47;5112965;28;20184;-44
2023/05/16 03:50:11;;;;;;;0.20;0.20;;;;;;;20.35;51.19;101476.94;5096901;28;20178;-42
2023/05/16 03:52:37;;;;;;;0.20;0.20;;;;;;;20.34;51.04;101481.63;5115275;28;20043;-42
2023/05/16 03:55:04;;;;;;;0.28;0.28;;;;;;;20.34;50.97;101487.16;5114286;28;20051;-41
2023/05/16 03:57:31;;;;;;;0.32;0.20;;;;;;;20.35;50.95;101479.69;5114828;28;20475;-43
2023/05/16 03:59:57;;;;;;;0.20;0.20;;;;;;;20.34;50.98;101491.88;5096506;28;20472;-43
2023/05/16 04:02:22;;;;;;;0.20;0.20;;;;;;;20.33;51.05;101492.97;5115326;28;20043;-42
2023/05/16 04:04:48;;;;;;;0.75;0.35;;;;;;;20.34;51.11;101494.63;5096586;28;20058;-43
2023/05/16 04:07:14;;;;;;;0.20;0.20;;;;;;;20.33;51.15;101510.38;5114651;28;20048;-44
2023/05/16 04:09:40;;;;;;;0.20;0.20;;;;;;;20.34;51.02;101500.19;5111544;28;20779;-43
2023/05/16 04:12:06;;;;;;;0.20;0.20;;;;;;;20.33;50.91;101502.09;5094693;28;20495;-42
2023/05/16 04:14:32;;;;;;;0.20;0.20;;;;;;;20.32;50.97;101505.97;5094194;28;20408;-45
2023/05/16 04:16:58;;;;;;;0.30;0.30;;;;;;;20.33;50.92;101515.91;5093089;28;20078;-42
2023/05/16 04:19:24;;;;;;;0.20;0.20;;;;;;;20.33;50.97;101517.84;5108409;27;20051;-41
2023/05/16 04:21:51;;;;;;;0.20;0.20;;;;;;;20.33;50.76;101518.69;5114969;28;20049;-41
2023/05/16 04:24:16;;;;;;;0.20;0.20;;;;;;;20.32;51.11;101514.25;5114858;28;20043;-41
2023/05/16 04:26:42;;;;;;;0.20;0.20;;;;;;;20.33;51.25;101526.16;5096071;28;20085;-41
2023/05/16 04:29:08;;;;;;;0.30;0.30;;;;;;;20.33;51.12;101529.75;5114113;28;20050;-43
2023/05/16 04:31:33;;;;;;;0.20;0.20;;;;;;;20.33;50.77;101526.16;5114715;27;20043;-43
2023/05/16 04:34:00;;;;;;;0.20;0.20;;;;;;;20.32;50.65;101525.31;5102980;28;20067;-42
2023/05/16 04:36:28;;;;;;;0.20;0.20;;;;;;;20.33;50.88;101528.91;5103673;28;20055;-43
2023/05/16 04:38:55;;;;;;;0.32;0.32;;;;;;;20.32;51.14;101535.56;5109622;28;20070;-40
2023/05/16 04:41:22;;;;;;;0.20;0.20;;;;;;;20.32;51.04;101536.38;5110747;28;20065;-44
2023/05/16 04:43:48;;;;;;;0.40;0.40;;;;;;;20.32;51.01;101538.31;5113754;28;20047;-41
2023/05/16 04:46:14;;;;;;;0.20;0.20;;;;;;;20.34;51.10;101549.97;5105063;28;20047;-42
2023/05/16 04:48:40;;;;;;;0.30;0.30;;;;;;;20.33;51.05;101545.50;5111539;28;20623;-42
2023/05/16 04:51:06;;;;;;;0.20;0.20;;;;;;;20.33;50.74;101545.50;5109395;28;20051;-42
2023/05/16 04:53:32;;;;;;;0.40;0.40;;;;;;;20.32;51.11;101555.75;5108765;28;20131;-41
2023/05/16 04:55:57;;;;;;;0.30;0.30;;;;;;;20.30;50.86;101558.81;5111795;28;20111;-41
2023/05/16 04:58:23;;;;;;;0.20;0.20;;;;;;;20.32;50.74;101552.97;5113810;28;20051;-41
2023/05/16 05:00:51;;;;;;;0.30;0.30;;;;;;;20.32;50.85;101560.44;5110325;28;20051;-43
2023/05/16 05:03:17;;;;;;;0.20;0.20;;;;;;;20.29;50.10;101557.16;5075540;28;20050;-41
2023/05/16 05:05:43;;;;;;;0.20;0.20;;;;;;;20.30;49.47;101564.34;5083784;28;20098;-41
2023/05/16 05:08:08;;;;;;;0.20;0.20;;;;;;;20.30;48.88;101566.28;5091492;28;20486;-41
2023/05/16 05:10:35;;;;;;;0.20;0.20;;;;;;;20.30;48.17;101569.03;5098402;28;20051;-43
2023/05/16 05:13:00;;;;;;;0.20;0.20;;;;;;;20.30;48.53;101567.09;5095440;28;20506;-42
2023/05/16 05:15:26;;;;;;;0.20;0.20;;;;;;;20.30;47.88;101567.09;5113515;28;20090;-40
2023/05/16 05:17:52;;;;;;;0.20;0.20;;;;;;;20.30;47.86;101567.09;5109573;28;20035;-41
2023/05/16 05:20:18;;;;;;;0.20;0.20;;;;;;;20.28;47.47;101569.28;5108280;27;20062;-42
2023/05/16 05:22:44;;;;;;;0.22;0.22;;;;;;;20.29;47.81;101573.75;5111368;28;20126;-41
2023/05/16 05:25:09;;;;;;;0.20;0.20;;;;;;;20.29;47.66;101578.41;5103076;27;20047;-45
2023/05/16 05:27:35;;;;;;;0.20;0.20;;;;;;;20.31;48.17;101587.28;5107137;28;20509;-41
2023/05/16 05:30:02;;;;;;;0.20;0.20;;;;;;;20.30;47.51;101589.22;5108098;27;20514;-43
2023/05/16 05:32:27;;;;;;;0.20;0.20;;;;;;;20.30;47.80;101591.16;5089317;28;20055;-41
2023/05/16 05:34:53;;;;;;;0.20;0.20;;;;;;;20.30;48.45;101589.22;5102566;28;20059;-40
2023/05/16 05:37:19;;;;;;;0.20;0.20;;;;;;;20.33;48.23;101592.53;5098154;28;20051;-41
2023/05/16 05:39:44;;;;;;;0.30;0.30;;;;;;;20.30;48.47;101592.00;5101772;27;20050;-42
2023/05/16 05:42:11;;;;;;;0.20;0.20;;;;;;;20.31;48.27;101603.88;5101931;27;20403;-41
2023/05/16 05:44:37;;;;;;;0.20;0.20;;;;;;;20.30;48.45;101602.22;5106381;28;20051;-43
2023/05/16 05:47:04;;;;;;;0.20;0.20;;;;;;;20.34;49.27;101605.28;5088391;28;20487;-40
2023/05/16 05:49:30;;;;;;;0.10;0.10;;;;;;;20.32;49.07;101600.00;5109890;28;20051;-41
2023/05/16 05:51:56;;;;;;;0.20;0.20;;;;;;;20.33;48.27;101609.13;5087673;28;20047;-41
2023/05/16 05:54:22;;;;;;;0.25;0.25;;;;;;;20.16;46.15;101612.13;5103218;28;20521;-38
2023/05/16 05:56:48;;;;;;;0.20;0.20;;;;;;;19.97;47.14;101607.06;5082254;28;20373;-43
2023/05/16 05:59:14;;;;;;;0.20;0.20;;;;;;;20.17;47.50;101614.63;5091443;27;20507;-41
2023/05/16 06:01:40;;;;;;;0.20;0.20;;;;;;;20.26;47.22;101614.94;5067642;27;20570;-42
2023/05/16 06:04:05;;;;;;;0.20;0.20;;;;;;;20.26;48.17;101614.94;5097109;27;20135;-41
2023/05/16 06:06:31;;;;;;;0.45;0.30;;;;;;;20.28;46.82;101621.00;5088990;27;20052;-40
2023/05/16 06:08:57;;;;;;;0.20;0.20;;;;;;;20.27;46.72;101624.88;5087906;27;20457;-41
2023/05/16 06:11:24;;;;;;;0.20;0.20;;;;;;;20.26;47.35;101624.06;5104918;28;20047;-43
2023/05/16 06:13:50;;;;;;;0.20;0.20;;;;;;;20.28;47.05;101627.38;5076269;27;20047;-41
2023/05/16 06:16:16;;;;;;;0.40;0.40;;;;;;;20.31;47.76;101634.31;5091257;27;20111;-41
2023/05/16 06:18:42;;;;;;;0.20;0.20;;;;;;;20.30;47.64;101636.25;5098283;27;20445;-44
2023/05/16 06:21:08;;;;;;;0.20;0.20;;;;;;;20.30;48.00;101639.00;5078638;28;20185;-41
2023/05/16 06:23:34;;;;;;;0.20;0.20;;;;;;;20.31;47.95;101637.06;5099582;27;20633;-43
2023/05/16 06:26:01;;;;;;;0.20;0.20;;;;;;;20.31;48.29;101639.84;5089761;27;20515;-43
2023/05/16 06:28:27;;;;;;;0.20;0.20;;;;;;;20.32;48.21;101641.50;5100214;28;20051;-43
2023/05/16 06:30:53;;;;;;;0.30;0.30;;;;;;;20.33;48.28;101642.31;5100387;28;20041;-44
2023/05/16 06:33:19;;;;;;;0.20;0.20;;;;;;;20.33;48.62;101648.69;5100319;27;20043;-45
2023/05/16 06:35:45;;;;;;;0.20;0.20;;;;;;;20.34;48.29;101649.53;5103061;28;20047;-44
2023/05/16 06:38:10;;;;;;;0.20;0.20;;;;;;;20.34;47.77;101647.63;5110542;27;20050;-43
2023/05/16 06:40:36;;;;;;;0.20;0.20;;;;;;;20.37;47.21;101644.28;5097406;28;20588;-43
2023/05/16 06:43:02;;;;;;;0.20;0.20;;;;;;;20.37;47.13;101648.97;5103022;27;20104;-43
2023/05/16 06:45:28;;;;;;;0.20;0.20;;;;;;;20.35;47.11;101651.19;5102502;28;20047;-45
2023/05/16 06:47:55;;;;;;;0.45;0.45;;;;;;;20.24;46.51;101651.16;5103074;27;20055;-43
2023/05/16 06:50:23;;;;;;;0.20;0.20;;;;;;;20.33;47.51;101659.75;5104458;27;20050;-43
2023/05/16 06:52:48;;;;;;;0.20;0.20;;;;;;;20.35;47.23;101654.81;5102805;27;20874;-42
2023/05/16 06:55:14;;;;;;;0.20;0.20;;;;;;;20.37;47.72;101654.50;5099505;27;20476;-44
2023/05/16 06:57:40;;;;;;;0.20;0.20;;;;;;;20.39;47.65;101658.69;5089523;28;20079;-44
2023/05/16 07:00:07;;;;;;;0.20;0.20;;;;;;;20.39;47.81;101652.31;5085073;27;20051;-43
2023/05/16 07:02:33;;;;;;;0.20;0.20;;;;;;;20.39;48.14;101655.91;5076923;27;20046;-44
2023/05/16 07:04:58;;;;;;;0.20;0.20;;;;;;;20.38;48.07;101654.25;5082356;27;20066;-44
2023/05/16 07:07:24;;;;;;;0.30;0.30;;;;;;;20.05;44.53;101658.25;5078438;27;20945;-45
2023/05/16 07:09:50;;;;;;;0.20;0.20;;;;;;;19.78;46.49;101647.34;5086670;27;20065;-42
2023/05/16 07:12:16;;;;;;;0.20;0.20;;;;;;;20.07;45.46;101656.06;5094840;27;20115;-44
2023/05/16 07:14:42;;;;;;;0.20;0.20;;;;;;;20.21;45.42;101661.94;5100291;28;20043;-44
2023/05/16 07:17:08;;;;;;;0.20;0.20;;;;;;;20.26;44.38;101667.50;5103951;27;20040;-45
2023/05/16 07:19:34;;;;;;;0.20;0.20;;;;;;;20.29;45.36;101662.25;5098231;28;20068;-44
2023/05/16 07:22:00;;;;;;;0.20;0.20;;;;;;;20.32;45.00;101660.03;5095950;27;20051;-42
2023/05/16 07:24:26;;;;;;;0.30;0.30;;;;;;;20.30;44.39;101666.69;5098181;27;20066;-42
2023/05/16 07:26:52;;;;;;;0.20;0.20;;;;;;;20.26;44.27;101668.31;5101809;28;20839;-43
2023/05/16 07:29:17;;;;;;;0.20;0.20;;;;;;;20.30;44.94;101676.91;5096686;28;20039;-42
2023/05/16 07:31:43;;;;;;;0.20;0.20;;;;;;;20.33;44.86;101664.47;5096381;27;20223;-44
2023/05/16 07:34:09;;;;;;;0.20;0.20;;;;;;;20.34;45.03;101677.22;5083714;27;20162;-43
2023/05/16 07:36:35;;;;;;;0.20;0.20;;;;;;;20.34;44.80;101680.81;5105648;27;20046;-42
2023/05/16 07:39:01;;;;;;;0.20;0.20;;;;;;;20.35;45.31;101676.94;5103862;27;20156;-42
2023/05/16 07:41:28;;;;;;;0.20;0.20;;;;;;;19.77;41.65;101667.78;5087721;28;20581;-49
2023/05/16 07:43:54;;;;;;;0.20;0.20;;;;;;;20.10;43.36;101663.00;5099633;27;20100;-44
2023/05/16 07:46:20;;;;;;;0.20;0.20;;;;;;;20.26;42.97;101659.19;5100930;27;20187;-42
2023/05/16 07:48:45;;;;;;;0.20;0.20;;;;;;;20.30;43.31;101663.91;5104608;27;20051;-45
2023/05/16 07:51:11;;;;;;;0.20;0.20;;;;;;;20.30;43.08;101669.44;5096516;27;20338;-42
2023/05/16 07:53:37;;;;;;;0.20;0.20;;;;;;;20.01;42.88;101669.03;5103502;28;20057;-44
2023/05/16 07:56:02;;;;;;;0.22;0.22;;;;;;;20.20;42.49;101668.56;5101999;27;20390;-43
2023/05/16 07:58:28;;;;;;;0.20;0.20;;;;;;;20.25;42.91;101674.09;5095298;28;20047;-44
2023/05/16 08:00:54;;;;;;;0.20;0.20;;;;;;;20.33;44.01;101668.06;5096587;27;20749;-44
2023/05/16 08:03:20;;;;;;;0.20;0.20;;;;;;;20.41;43.84;101670.31;5089866;28;20855;-42
2023/05/16 08:05:47;;;;;;;0.20;0.20;;;;;;;19.79;42.92;101673.88;5090644;27;20058;-43
2023/05/16 08:08:13;;;;;;;0.20;0.20;;;;;;;20.13;42.25;101666.06;5082080;27;20054;-42
2023/05/16 08:10:39;;;;;;;0.20;0.20;;;;;;;20.26;42.58;101675.78;5055947;27;20068;-43
2023/05/16 08:13:05;;;;;;;0.20;0.20;;;;;;;20.28;42.64;101670.81;5090470;28;20070;-43
2023/05/16 08:15:30;;;;;;;0.20;0.20;;;;;;;20.30;43.08;101669.44;5081445;27;20050;-44
2023/05/16 08:17:57;;;;;;;0.20;0.20;;;;;;;20.26;42.47;101661.97;5086008;27;20047;-42
2023/05/16 08:20:24;;;;;;;0.20;0.20;;;;;;;20.29;42.65;101666.94;5073165;28;20133;-46
2023/05/16 08:22:51;;;;;;;0.20;0.20;;;;;;;20.29;42.44;101669.69;5071942;28;21339;-42
2023/05/16 08:25:16;;;;;;;0.20;0.20;;;;;;;20.30;42.81;101674.16;5073757;28;20100;-43
2023/05/16 08:27:44;;;;;;;0.20;0.20;;;;;;;20.31;43.28;101675.81;5087196;28;20043;-43
2023/05/16 08:30:10;;;;;;;0.20;0.20;;;;;;;20.24;42.57;101669.69;5090857;28;20481;-46
2023/05/16 08:32:36;;;;;;;0.20;0.20;;;;;;;20.32;42.19;101679.41;5081344;27;20083;-42
2023/05/16 08:35:02;;;;;;;0.30;0.30;;;;;;;20.15;42.22;101671.31;5076023;28;20048;-41
2023/05/16 08:37:28;;;;;;;0.20;0.20;;;;;;;20.25;41.47;101674.09;5080642;28;20070;-42
2023/05/16 08:39:54;;;;;;;0.20;0.20;;;;;;;20.28;41.32;101674.41;5073360;27;20051;-42
2023/05/16 08:42:20;;;;;;;0.20;0.20;;;;;;;20.29;41.32;101673.31;5080474;27;20039;-51
2023/05/16 08:44:45;;;;;;;0.20;0.20;;;;;;;20.31;41.70;101675.81;5095953;28;20057;-44
2023/05/16 08:47:17;;;;;;;0.20;0.20;;;;;;;20.31;42.33;101670.28;5091503;27;20051;-45
2023/05/16 08:49:46;;;;;;;0.20;0.20;;;;;;;20.32;41.67;101676.63;5091327;27;20190;-42
2023/05/16 08:52:12;;;;;;;;;;;;;;;20.29;41.99;101669.69;5097627;28;20099;-43
2023/05/16 08:54:38;;;;;;;0.20;0.20;;;;;;;20.29;42.73;101676.09;5086875;28;19927;-42
2023/05/16 08:57:05;;;;;;;0.20;0.20;;;;;;;20.30;41.94;101668.63;5093796;27;20702;-42
2023/05/16 08:59:31;;;;;;;0.20;0.20;;;;;;;20.28;42.08;101682.69;5102140;27;20051;-42
2023/05/16 09:01:57;;;;;;;0.20;0.20;;;;;;;20.31;42.70;101675.81;5096148;28;20048;-43
2023/05/16 09:04:24;;;;;;;0.17;0.17;;;;;;;20.31;42.83;101673.03;5082200;28;20104;-42
2023/05/16 09:06:51;;;;;;;0.20;0.20;;;;;;;20.31;42.37;101670.28;5102207;27;21014;-45
2023/05/16 09:09:16;;;;;;;0.20;0.20;;;;;;;20.29;42.10;101673.31;5099920;27;20047;-43
2023/05/16 09:11:42;;;;;;;0.20;0.20;;;;;;;20.32;43.24;101674.69;5102994;28;20043;-42
2023/05/16 09:14:08;;;;;;;0.20;0.20;;;;;;;20.32;43.40;101668.34;5102701;28;20039;-42
2023/05/16 09:16:33;;;;;;;0.20;0.20;;;;;;;20.33;43.26;101670.00;5096030;27;20047;-44
2023/05/16 09:19:00;;;;;;;0.20;0.20;;;;;;;20.33;43.35;101675.53;5095892;28;20039;-43
2023/05/16 09:21:30;;;;;;;0.20;0.20;;;;;;;20.35;43.22;101668.63;5081831;28;20062;-43
2023/05/16 09:24:01;;;;;;;0.20;0.20;;;;;;;20.34;42.80;101668.91;5081239;28;20051;-42
2023/05/16 09:26:27;;;;;;;0.20;0.20;;;;;;;20.35;43.39;101659.50;5076489;28;20089;-42
2023/05/16 09:28:54;;;;;;;0.20;0.20;;;;;;;20.33;42.95;101659.75;5094724;28;20174;-43
2023/05/16 09:31:22;;;;;;;0.20;0.20;;;;;;;20.34;43.01;101661.44;5094440;28;20039;-42
2023/05/16 09:33:49;;;;;;;0.20;0.20;;;;;;;20.33;42.76;101661.69;5063394;27;20071;-42
2023/05/16 09:36:15;;;;;;;0.20;0.20;;;;;;;20.32;42.70;101660.88;5064629;28;20510;-44
2023/05/16 09:38:40;;;;;;;0.73;0.25;;;;;;;20.36;43.18;101661.16;5079665;27;20508;-42
2023/05/16 09:41:08;;;;;;;0.20;0.20;;;;;;;20.35;42.77;101663.09;5075971;28;20116;-42
2023/05/16 09:43:38;;;;;;;0.20;0.20;;;;;;;20.34;42.64;101668.91;5076107;28;20055;-42
2023/05/16 09:46:07;;;;;;;0.20;0.20;;;;;;;20.35;42.19;101667.81;5085993;28;20318;-43
2023/05/16 09:48:33;;;;;;;0.20;0.20;;;;;;;20.35;42.52;101657.56;5088193;27;20047;-42
2023/05/16 09:51:03;;;;;;;0.20;0.20;;;;;;;20.37;42.10;101666.41;5084457;27;20104;-41
2023/05/16 09:53:31;;;;;;;0.20;0.20;;;;;;;20.36;42.45;101664.75;5096458;28;20222;-43
2023/05/16 09:56:02;;;;;;;0.20;0.20;;;;;;;20.36;42.77;101670.28;5093741;27;20052;-44
2023/05/16 09:58:30;;;;;;;0.20;0.20;;;;;;;20.37;42.95;101671.13;5086767;28;20043;-43
2023/05/16 10:00:57;;;;;;;0.20;0.20;;;;;;;20.38;42.88;101667.25;5090107;28;20066;-43
2023/05/16 10:03:24;;;;;;;0.20;0.20;;;;;;;20.37;42.89;101666.41;5102473;27;20071;-42
2023/05/16 10:05:51;;;;;;;0.20;0.20;;;;;;;20.38;42.83;101662.56;5101712;27;20054;-42
2023/05/16 10:08:20;;;;;;;0.20;0.20;;;;;;;20.41;43.35;101663.94;5081372;28;20051;-42
2023/05/16 10:10:50;;;;;;;0.20;0.20;;;;;;;20.41;43.68;101664.75;5075486;28;20047;-41
2023/05/16 10:13:16;;;;;;;0.20;0.20;;;;;;;20.37;42.57;101665.59;5073163;28;20527;-42
2023/05/16 10:15:43;;;;;;;0.20;0.20;;;;;;;20.39;42.76;101658.69;5093145;27;20055;-43
2023/05/16 10:18:11;;;;;;;0.20;0.20;;;;;;;20.39;43.14;101658.69;5102213;27;20067;-46
2023/05/16 10:20:41;;;;;;;0.20;0.20;;;;;;;20.40;42.34;101663.09;5094167;28;20055;-43
2023/05/16 10:23:08;;;;;;;0.20;0.20;;;;;;;20.42;43.08;101662.81;5093251;27;20511;-42
2023/05/16 10:25:40;;;;;;;0.20;0.20;;;;;;;20.39;41.84;101658.69;5099068;28;20635;-42
2023/05/16 10:28:07;;;;;;;0.20;0.20;;;;;;;20.41;42.82;101669.47;5096724;27;20040;-42
2023/05/16 10:30:33;;;;;;;0.20;0.20;;;;;;;20.41;43.26;101670.31;5066532;28;20051;-45
2023/05/16 10:33:01;;;;;;;0.20;0.20;;;;;;;20.42;43.14;101668.38;5069257;28;20074;-43
2023/05/16 10:35:27;;;;;;;0.20;0.20;;;;;;;20.36;42.00;101659.22;5093009;27;20047;-42
2023/05/16 10:37:53;;;;;;;0.20;0.20;;;;;;;20.41;42.76;101659.22;5086202;27;20142;-42
2023/05/16 10:40:20;;;;;;;0.20;0.20;;;;;;;20.41;42.99;101662.00;5084333;27;20043;-42
2023/05/16 10:42:55;;;;;;;0.20;0.20;;;;;;;20.41;43.14;101658.41;5082673;28;20113;-41
2023/05/16 10:45:21;;;;;;;0.20;0.20;;;;;;;20.39;43.04;101661.44;5092018;27;20066;-42
2023/05/16 10:47:52;;;;;;;0.20;0.20;;;;;;;20.38;42.98;101668.09;5085903;27;20550;-42
2023/05/16 10:50:42;;;;;;;0.20;0.20;;;;;;;20.38;42.64;101662.56;5094125;27;20079;-43
2023/05/16 10:53:17;;;;;;;0.20;0.20;;;;;;;20.39;42.98;101677.22;5096668;28;20047;-42
2023/05/16 11:01:31;;;;;;;0.20;0.20;;;;;;;20.42;42.89;101673.91;5137115;27;20408;-41
2023/05/16 11:06:52;;;;;;;0.20;0.20;;;;;;;20.41;42.96;101683.31;5135278;27;20419;-40
2023/05/16 11:09:21;;;;;;;0.20;0.20;;;;;;;20.42;42.72;101682.19;5104554;27;20047;-39
2023/05/16 11:11:59;;;;;;;0.20;0.20;;;;;;;20.41;42.44;101677.78;5098561;27;20046;-43
2023/05/16 11:14:34;;;;;;;0.20;0.20;;;;;;;20.41;42.68;101684.13;5116283;27;20046;-41
2023/05/16 11:17:21;;;;;;;0.20;0.20;;;;;;;20.43;43.54;101676.41;5116907;27;20049;-44
2023/05/16 11:19:49;;;;;;;0.20;0.20;;;;;;;20.44;44.06;101685.53;5097577;27;20031;-42
2023/05/16 11:25:10;;;;;;;0.20;0.20;;;;;;;20.42;44.33;101672.00;5136939;27;20133;-40
2023/05/16 11:27:51;;;;;;;0.20;0.20;;;;;;;20.43;44.24;101668.09;5130656;27;20403;-42
2023/05/16 11:30:18;;;;;;;0.20;0.20;;;;;;;20.43;44.60;101668.09;5124597;27;20054;-40
2023/05/16 11:32:45;;;;;;;0.20;0.20;;;;;;;20.44;44.14;101666.16;5118940;27;20047;-42
2023/05/16 11:35:13;;;;;;;0.20;0.20;;;;;;;20.44;44.21;101666.16;5083746;27;20042;-42
2023/05/16 11:37:40;;;;;;;0.20;0.20;;;;;;;20.43;42.66;101670.03;5086677;27;20751;-45
2023/05/16 11:40:08;;;;;;;0.20;0.20;;;;;;;20.43;43.14;101673.66;5080910;27;20813;-43